createdAt,value
2023-01-09T00:00:21.237Z,95185.06
2023-01-09T00:02:51.459Z,95185.38
2023-01-09T00:05:21.000Z,95180.50
2023-01-09T00:07:51.820Z,95179.22
2023-01-09T00:10:21.231Z,95183.75
2023-01-09T00:12:53.365Z,95175.63
2023-01-09T00:15:23.050Z,95179.53
2023-01-09T00:17:52.212Z,95180.53
2023-01-09T00:20:21.607Z,95176.28
2023-01-09T00:22:52.329Z,95178.25
2023-01-09T00:25:22.998Z,95172.38
2023-01-09T00:27:52.725Z,95176.97
2023-01-09T00:30:22.170Z,95181.50
2023-01-09T00:32:51.630Z,95171.56
2023-01-09T00:35:21.013Z,95174.84
2023-01-09T00:37:51.540Z,95176.47
2023-01-09T00:40:21.388Z,95163.16
2023-01-09T00:42:54.424Z,95168.69
2023-01-09T00:45:29.441Z,95168.50
2023-01-09T00:48:05.394Z,95168.16
2023-01-09T00:50:36.225Z,95166.88
2023-01-09T00:53:10.973Z,95172.22
2023-01-09T00:55:41.073Z,95167.34
2023-01-09T00:58:10.451Z,95170.28
2023-01-09T01:00:39.721Z,95166.06
2023-01-09T01:03:08.966Z,95149.63
2023-01-09T01:05:55.205Z,95143.47
2023-01-09T01:08:25.954Z,95152.25
2023-01-09T01:10:55.125Z,95148.03
2023-01-09T01:13:24.353Z,95145.88
2023-01-09T01:15:53.559Z,95149.16
2023-01-09T01:18:22.747Z,95148.16
2023-01-09T01:20:51.833Z,95156.59
2023-01-09T01:23:20.985Z,95148.66
2023-01-09T01:25:51.674Z,95146.38
2023-01-09T01:28:21.609Z,95145.09
2023-01-09T01:30:50.743Z,95141.53
2023-01-09T01:33:20.457Z,95139.56
2023-01-09T01:35:49.499Z,95131.44
2023-01-09T01:38:18.820Z,95129.47
2023-01-09T01:40:56.361Z,95127.38
2023-01-09T01:43:25.941Z,95119.22
2023-01-09T01:45:55.738Z,95117.13
2023-01-09T01:48:28.959Z,95116.16
2023-01-09T01:51:03.430Z,95115.50
2023-01-09T01:53:36.469Z,95111.09
2023-01-09T01:56:08.349Z,95100.38
2023-01-09T01:58:44.903Z,95104.78
2023-01-09T02:01:14.359Z,95100.06
2023-01-09T02:03:45.003Z,95096.84
2023-01-09T02:06:15.938Z,95097.00
2023-01-09T02:08:45.367Z,95090.31
2023-01-09T02:11:18.552Z,95099.25
2023-01-09T02:13:48.154Z,95091.94
2023-01-09T02:16:29.344Z,95092.28
2023-01-09T02:19:08.173Z,95095.34
2023-01-09T02:21:52.337Z,95100.06
2023-01-09T02:24:59.709Z,95094.03
2023-01-09T02:27:59.433Z,95089.66
2023-01-09T02:30:37.278Z,95083.16
2023-01-09T02:33:27.564Z,95077.47
2023-01-09T02:36:10.395Z,95075.50
2023-01-09T02:38:48.659Z,95066.59
2023-01-09T02:41:22.407Z,95074.22
2023-01-09T02:44:16.822Z,95064.47
2023-01-09T02:46:48.151Z,95059.28
2023-01-09T02:49:19.064Z,95063.34
2023-01-09T02:51:54.254Z,95056.34
2023-01-09T02:54:36.361Z,95057.00
2023-01-09T02:57:20.073Z,95064.16
2023-01-09T03:00:04.854Z,95066.28
2023-01-09T03:02:48.467Z,95062.19
2023-01-09T03:05:24.340Z,95069.38
2023-01-09T03:08:01.304Z,95071.78
2023-01-09T03:10:37.181Z,95065.97
2023-01-09T03:13:10.317Z,95080.72
2023-01-09T03:15:43.245Z,95076.69
2023-01-09T03:18:19.515Z,95075.34
2023-01-09T03:20:49.852Z,95079.75
2023-01-09T03:23:19.198Z,95076.03
2023-01-09T03:25:48.408Z,95067.69
2023-01-09T03:28:28.079Z,95071.47
2023-01-09T03:30:57.232Z,95069.66
2023-01-09T03:33:29.152Z,95066.09
2023-01-09T03:35:58.180Z,95069.34
2023-01-09T03:38:27.315Z,95072.75
2023-01-09T03:40:56.455Z,95070.34
2023-01-09T03:43:25.683Z,95072.13
2023-01-09T03:45:54.889Z,95065.13
2023-01-09T03:48:24.391Z,95066.09
2023-01-09T03:50:55.847Z,95072.41
2023-01-09T03:53:27.117Z,95065.44
2023-01-09T03:55:59.156Z,95066.88
2023-01-09T03:58:29.131Z,95060.25
2023-01-09T04:01:01.316Z,95053.88
2023-01-09T04:03:30.624Z,95056.16
2023-01-09T04:06:01.426Z,95043.78
2023-01-09T04:08:30.905Z,95041.47
2023-01-09T04:11:00.151Z,95038.53
2023-01-09T04:13:29.281Z,95040.00
2023-01-09T04:15:59.159Z,95037.69
2023-01-09T04:18:28.326Z,95037.00
2023-01-09T04:20:57.572Z,95043.34
2023-01-09T04:23:28.162Z,95049.81
2023-01-09T04:25:57.921Z,95035.97
2023-01-09T04:28:27.167Z,95048.47
2023-01-09T04:30:56.503Z,95049.16
2023-01-09T04:33:25.670Z,95037.22
2023-01-09T04:35:54.823Z,95045.47
2023-01-09T04:38:23.941Z,95039.47
2023-01-09T04:40:55.496Z,95042.38
2023-01-09T04:43:24.769Z,95037.13
2023-01-09T04:45:53.901Z,95048.00
2023-01-09T04:48:23.810Z,95058.59
2023-01-09T04:50:53.037Z,95040.19
2023-01-09T04:53:22.337Z,95038.81
2023-01-09T04:55:52.718Z,95045.19
2023-01-09T04:58:23.516Z,95045.84
2023-01-09T05:00:54.003Z,95040.38
2023-01-09T05:03:23.301Z,95054.75
2023-01-09T05:05:52.495Z,95051.69
2023-01-09T05:08:21.870Z,95047.06
2023-01-09T05:10:52.308Z,95051.34
2023-01-09T05:13:22.957Z,95046.59
2023-01-09T05:15:52.150Z,95045.31
2023-01-09T05:18:21.461Z,95040.88
2023-01-09T05:20:51.218Z,95027.44
2023-01-09T05:23:20.517Z,95029.50
2023-01-09T05:25:50.255Z,95030.19
2023-01-09T05:28:19.654Z,95020.59
2023-01-09T05:30:50.722Z,95027.69
2023-01-09T05:33:19.878Z,95030.47
2023-01-09T05:35:48.942Z,95033.72
2023-01-09T05:38:18.166Z,95033.38
2023-01-09T05:40:47.641Z,95028.34
2023-01-09T05:43:16.962Z,95023.75
2023-01-09T05:45:46.269Z,95028.38
2023-01-09T05:48:17.377Z,95027.31
2023-01-09T05:50:46.570Z,95026.13
2023-01-09T05:53:15.787Z,95021.41
2023-01-09T05:55:45.112Z,95023.59
2023-01-09T05:58:14.457Z,95016.41
2023-01-09T06:00:43.641Z,95007.81
2023-01-09T06:03:13.357Z,95013.31
2023-01-09T06:05:44.098Z,95009.44
2023-01-09T06:08:13.271Z,95011.50
2023-01-09T06:10:42.273Z,95014.03
2023-01-09T06:13:12.218Z,95025.19
2023-01-09T06:15:41.456Z,95020.53
2023-01-09T06:18:10.847Z,95011.34
2023-01-09T06:20:40.746Z,95007.38
2023-01-09T06:23:13.767Z,94999.19
2023-01-09T06:25:42.737Z,95006.03
2023-01-09T06:28:12.483Z,94999.00
2023-01-09T06:30:41.650Z,95000.06
2023-01-09T06:33:10.861Z,94994.22
2023-01-09T06:35:40.060Z,95003.06
2023-01-09T06:38:10.885Z,94996.91
2023-01-09T06:40:40.675Z,94995.84
2023-01-09T06:43:10.475Z,95000.06
2023-01-09T06:45:39.830Z,95003.47
2023-01-09T06:48:09.114Z,95003.59
2023-01-09T06:50:38.312Z,95000.63
2023-01-09T06:53:08.165Z,95000.22
2023-01-09T06:55:38.964Z,94993.03
2023-01-09T06:58:28.381Z,94990.69
2023-01-09T07:00:57.856Z,94991.34
2023-01-09T07:03:27.182Z,94995.09
2023-01-09T07:05:56.647Z,95005.81
2023-01-09T07:08:25.798Z,95005.56
2023-01-09T07:11:00.254Z,95006.88
2023-01-09T07:13:29.552Z,95005.72
2023-01-09T07:15:58.691Z,95011.47
2023-01-09T07:18:27.879Z,95009.53
2023-01-09T07:20:57.197Z,95016.72
2023-01-09T07:23:26.988Z,95016.41
2023-01-09T07:25:56.138Z,95026.34
2023-01-09T07:28:27.069Z,95023.91
2023-01-09T07:30:56.276Z,95035.69
2023-01-09T07:33:25.596Z,95038.66
2023-01-09T07:35:55.075Z,95041.13
2023-01-09T07:38:25.753Z,95037.16
2023-01-09T07:40:55.084Z,95031.41
2023-01-09T07:43:26.103Z,95030.03
2023-01-09T07:45:55.243Z,95034.69
2023-01-09T07:48:24.759Z,95035.22
2023-01-09T07:50:54.030Z,95036.81
2023-01-09T07:53:23.974Z,95025.09
2023-01-09T07:55:53.209Z,95018.50
2023-01-09T07:58:23.063Z,95013.53
2023-01-09T08:00:53.899Z,95020.22
2023-01-09T08:03:22.970Z,95025.75
2023-01-09T08:05:52.234Z,95026.38
2023-01-09T08:08:21.574Z,95017.59
2023-01-09T08:10:50.931Z,95015.09
2023-01-09T08:13:20.994Z,95014.75
2023-01-09T08:15:50.353Z,95018.00
2023-01-09T08:18:20.965Z,95011.25
2023-01-09T08:20:50.538Z,95009.09
2023-01-09T08:23:20.055Z,95015.50
2023-01-09T08:25:49.374Z,95020.34
2023-01-09T08:28:18.707Z,95004.66
2023-01-09T08:30:49.248Z,95012.69
2023-01-09T08:33:18.540Z,95016.59
2023-01-09T08:35:50.993Z,95024.28
2023-01-09T08:38:22.265Z,95027.91
2023-01-09T08:40:51.988Z,95023.16
2023-01-09T08:43:38.509Z,95023.53
2023-01-09T08:46:27.708Z,95017.13
2023-01-09T08:48:57.069Z,95021.13
2023-01-09T08:51:28.552Z,95023.03
2023-01-09T08:53:59.684Z,95018.75
2023-01-09T08:56:28.871Z,95020.66
2023-01-09T08:58:58.030Z,95004.59
2023-01-09T09:01:27.333Z,95014.09
2023-01-09T09:03:56.671Z,95009.13
2023-01-09T09:06:27.333Z,95001.09
2023-01-09T09:08:57.072Z,94998.91
2023-01-09T09:11:26.329Z,94993.25
2023-01-09T09:13:56.188Z,94984.75
2023-01-09T09:16:25.887Z,94981.56
2023-01-09T09:18:55.545Z,94976.66
2023-01-09T09:21:24.810Z,94969.66
2023-01-09T09:23:58.097Z,94964.34
2023-01-09T09:26:27.579Z,94959.38
2023-01-09T09:29:00.313Z,94947.34
2023-01-09T09:31:29.877Z,94936.88
2023-01-09T09:34:00.280Z,94937.91
2023-01-09T09:36:30.823Z,94927.56
2023-01-09T09:39:02.823Z,94919.13
2023-01-09T09:42:10.643Z,94910.94
2023-01-09T09:44:54.662Z,94909.03
2023-01-09T09:47:38.617Z,94896.66
2023-01-09T09:50:30.901Z,94896.88
2023-01-09T09:53:08.643Z,94888.16
2023-01-09T09:55:41.598Z,94880.06
2023-01-09T09:58:21.981Z,94876.38
2023-01-09T10:00:52.530Z,94870.03
2023-01-09T10:03:33.989Z,94872.25
2023-01-09T10:06:10.228Z,94864.56
2023-01-09T10:08:47.205Z,94853.59
2023-01-09T10:11:26.950Z,94854.44
2023-01-09T10:14:22.874Z,94844.69
2023-01-09T10:17:09.170Z,94839.06
2023-01-09T10:19:47.965Z,94835.94
2023-01-09T10:22:27.048Z,94830.78
2023-01-09T10:25:08.376Z,94816.75
2023-01-09T10:27:58.540Z,94807.09
2023-01-09T10:30:39.298Z,94810.56
2023-01-09T10:33:26.917Z,94791.81
2023-01-09T10:36:25.913Z,94792.47
2023-01-09T10:38:57.895Z,94772.94
2023-01-09T10:41:33.403Z,94775.31
2023-01-09T10:44:14.102Z,94774.56
2023-01-09T10:47:07.495Z,94765.78
2023-01-09T10:49:38.670Z,94757.22
2023-01-09T10:52:18.635Z,94752.06
2023-01-09T10:54:53.118Z,94753.53
2023-01-09T10:57:35.860Z,94746.81
2023-01-09T11:00:09.094Z,94739.28
2023-01-09T11:02:41.045Z,94733.72
2023-01-09T11:05:15.129Z,94745.16
2023-01-09T11:07:47.667Z,94734.66
2023-01-09T11:10:19.644Z,94742.28
2023-01-09T11:12:49.189Z,94737.38
2023-01-09T11:15:29.378Z,94737.38
2023-01-09T11:18:21.521Z,94731.28
2023-01-09T11:20:51.298Z,94719.22
2023-01-09T11:23:33.008Z,94718.28
2023-01-09T11:26:03.741Z,94709.72
2023-01-09T11:28:32.966Z,94712.72
2023-01-09T11:31:04.652Z,94713.28
2023-01-09T11:33:41.562Z,94711.81
2023-01-09T11:36:16.597Z,94702.50
2023-01-09T11:38:52.792Z,94699.22
2023-01-09T11:41:25.323Z,94696.00
2023-01-09T11:43:57.220Z,94693.84
2023-01-09T11:46:37.676Z,94686.84
2023-01-09T11:49:23.756Z,94680.81
2023-01-09T11:52:19.963Z,94676.00
2023-01-09T11:54:53.849Z,94676.91
2023-01-09T11:57:24.260Z,94672.22
2023-01-09T11:59:55.767Z,94672.16
2023-01-09T12:02:41.589Z,94672.75
2023-01-09T12:05:26.770Z,94657.19
2023-01-09T12:08:14.540Z,94642.91
2023-01-09T12:11:02.150Z,94654.66
2023-01-09T12:13:47.118Z,94652.16
2023-01-09T12:16:27.277Z,94648.63
2023-01-09T12:19:16.241Z,94645.09
2023-01-09T12:21:54.809Z,94640.56
2023-01-09T12:24:46.109Z,94645.16
2023-01-09T12:27:27.023Z,94652.84
2023-01-09T12:30:21.640Z,94647.34
2023-01-09T12:33:03.201Z,94637.00
2023-01-09T12:35:42.306Z,94633.16
2023-01-09T12:38:23.850Z,94625.47
2023-01-09T12:41:12.227Z,94624.44
2023-01-09T12:43:53.209Z,94622.69
2023-01-09T12:46:24.871Z,94612.28
2023-01-09T12:49:17.160Z,94611.69
2023-01-09T12:51:51.972Z,94605.06
2023-01-09T12:54:28.718Z,94598.97
2023-01-09T12:57:02.596Z,94603.78
2023-01-09T12:59:37.550Z,94597.00
2023-01-09T13:02:18.725Z,94597.09
2023-01-09T13:04:53.550Z,94599.06
2023-01-09T13:07:29.209Z,94601.56
2023-01-09T13:10:04.038Z,94594.44
2023-01-09T13:12:37.028Z,94592.63
2023-01-09T13:15:09.110Z,94596.22
2023-01-09T13:17:52.752Z,94585.41
2023-01-09T13:20:30.621Z,94589.53
2023-01-09T13:23:04.076Z,94592.53
2023-01-09T13:25:43.599Z,94587.59
2023-01-09T13:28:20.721Z,94583.69
2023-01-09T13:31:16.346Z,94593.41
2023-01-09T13:33:48.029Z,94585.69
2023-01-09T13:36:26.896Z,94585.34
2023-01-09T13:38:59.409Z,94583.03
2023-01-09T13:41:46.485Z,94599.81
2023-01-09T13:44:28.800Z,94583.38
2023-01-09T13:47:01.418Z,94592.56
2023-01-09T13:49:35.520Z,94596.44
2023-01-09T13:52:07.704Z,94594.66
2023-01-09T13:55:18.162Z,94597.88
2023-01-09T13:58:27.592Z,94599.03
2023-01-09T14:01:02.797Z,94598.03
2023-01-09T14:03:35.805Z,94599.06
2023-01-09T14:06:22.982Z,94587.00
2023-01-09T14:09:12.491Z,94591.00
2023-01-09T14:11:42.158Z,94581.72
2023-01-09T14:14:29.109Z,94566.09
2023-01-09T14:17:00.349Z,94566.59
2023-01-09T14:19:36.615Z,94567.34
2023-01-09T14:22:07.250Z,94570.16
2023-01-09T14:24:46.611Z,94572.22
2023-01-09T14:28:07.029Z,94568.84
2023-01-09T14:31:07.160Z,94578.47
2023-01-09T14:33:36.628Z,94566.94
2023-01-09T14:36:14.615Z,94559.06
2023-01-09T14:38:48.235Z,94560.50
2023-01-09T14:41:44.828Z,94553.06
2023-01-09T14:44:28.425Z,94556.38
2023-01-09T14:47:05.416Z,94554.00
2023-01-09T14:49:37.388Z,94545.44
2023-01-09T14:52:15.770Z,94553.03
2023-01-09T14:54:51.147Z,94550.41
2023-01-09T14:57:30.545Z,94533.84
2023-01-09T15:00:01.988Z,94540.59
2023-01-09T15:02:40.549Z,94548.97
2023-01-09T15:05:13.015Z,94538.34
2023-01-09T15:07:47.358Z,94542.22
2023-01-09T15:10:20.611Z,94536.81
2023-01-09T15:12:52.901Z,94538.69
2023-01-09T15:15:24.453Z,94525.00
2023-01-09T15:17:58.449Z,94530.69
2023-01-09T15:20:30.292Z,94533.31
2023-01-09T15:23:04.423Z,94531.38
2023-01-09T15:25:40.239Z,94538.44
2023-01-09T15:28:25.574Z,94532.66
2023-01-09T15:30:58.796Z,94520.81
2023-01-09T15:33:29.123Z,94529.06
2023-01-09T15:36:02.832Z,94520.84
2023-01-09T15:38:36.319Z,94528.53
2023-01-09T15:41:11.146Z,94518.84
2023-01-09T15:43:43.549Z,94522.97
2023-01-09T15:46:17.387Z,94527.19
2023-01-09T15:48:55.954Z,94538.31
2023-01-09T15:51:26.439Z,94533.28
2023-01-09T15:53:58.711Z,94534.13
2023-01-09T15:56:30.836Z,94532.31
2023-01-09T15:59:00.727Z,94529.47
2023-01-09T16:01:32.033Z,94526.66
2023-01-09T16:04:10.224Z,94527.47
2023-01-09T16:06:45.809Z,94519.59
2023-01-09T16:09:19.015Z,94508.16
2023-01-09T16:11:52.388Z,94503.72
2023-01-09T16:14:24.935Z,94503.75
2023-01-09T16:16:55.293Z,94511.59
2023-01-09T16:19:43.158Z,94505.16
2023-01-09T16:22:21.856Z,94511.41
2023-01-09T16:24:55.198Z,94508.78
2023-01-09T16:27:27.692Z,94498.13
2023-01-09T16:29:59.784Z,94498.50
2023-01-09T16:32:31.877Z,94494.69
2023-01-09T16:35:06.811Z,94496.09
2023-01-09T16:37:37.632Z,94482.84
2023-01-09T16:40:30.696Z,94486.69
2023-01-09T16:43:08.889Z,94475.41
2023-01-09T16:45:40.703Z,94472.19
2023-01-09T16:48:16.232Z,94479.66
2023-01-09T16:50:47.432Z,94486.09
2023-01-09T16:53:19.115Z,94484.03
2023-01-09T16:55:49.916Z,94474.41
2023-01-09T16:58:25.610Z,94484.88
2023-01-09T17:00:55.865Z,94488.28
2023-01-09T17:03:26.545Z,94493.31
2023-01-09T17:06:00.097Z,94486.47
2023-01-09T17:08:32.237Z,94493.50
2023-01-09T17:11:01.608Z,94482.63
2023-01-09T17:13:30.923Z,94474.00
2023-01-09T17:16:01.282Z,94472.59
2023-01-09T17:18:30.499Z,94483.47
2023-01-09T17:21:01.398Z,94474.00
2023-01-09T17:23:31.014Z,94471.41
2023-01-09T17:26:18.416Z,94459.13
2023-01-09T17:28:50.790Z,94456.91
2023-01-09T17:31:20.750Z,94457.94
2023-01-09T17:33:50.573Z,94461.94
2023-01-09T17:36:28.531Z,94448.66
2023-01-09T17:38:58.241Z,94446.03
2023-01-09T17:41:29.323Z,94455.31
2023-01-09T17:44:00.565Z,94451.28
2023-01-09T17:46:32.342Z,94448.66
2023-01-09T17:49:04.436Z,94447.03
2023-01-09T17:51:36.555Z,94454.28
2023-01-09T17:54:07.039Z,94438.41
2023-01-09T17:56:39.031Z,94438.81
2023-01-09T17:59:08.830Z,94452.06
2023-01-09T18:01:38.070Z,94445.63
2023-01-09T18:04:07.892Z,94456.69
2023-01-09T18:06:39.483Z,94448.84
2023-01-09T18:09:11.214Z,94440.00
2023-01-09T18:11:43.316Z,94428.53
2023-01-09T18:14:14.101Z,94430.56
2023-01-09T18:16:44.714Z,94433.16
2023-01-09T18:19:14.237Z,94447.44
2023-01-09T18:21:47.127Z,94427.53
2023-01-09T18:24:16.378Z,94427.75
2023-01-09T18:26:46.176Z,94425.50
2023-01-09T18:29:15.856Z,94423.31
2023-01-09T18:31:45.441Z,94421.69
2023-01-09T18:34:15.124Z,94427.31
2023-01-09T18:36:46.066Z,94428.34
2023-01-09T18:39:15.969Z,94441.44
2023-01-09T18:41:45.487Z,94428.94
2023-01-09T18:44:15.092Z,94444.63
2023-01-09T18:46:44.537Z,94452.06
2023-01-09T18:49:14.090Z,94451.88
2023-01-09T18:51:45.272Z,94430.94
2023-01-09T18:54:15.430Z,94436.59
2023-01-09T18:56:45.199Z,94430.16
2023-01-09T18:59:15.353Z,94425.13
2023-01-09T19:01:44.975Z,94431.38
2023-01-09T19:04:14.583Z,94426.50
2023-01-09T19:06:45.459Z,94417.25
2023-01-09T19:09:15.477Z,94413.84
2023-01-09T19:11:45.243Z,94407.59
2023-01-09T19:14:17.915Z,94398.34
2023-01-09T19:16:47.810Z,94406.19
2023-01-09T19:19:17.399Z,94403.59
2023-01-09T19:21:48.151Z,94393.72
2023-01-09T19:24:19.670Z,94393.72
2023-01-09T19:26:50.873Z,94396.75
2023-01-09T19:29:20.436Z,94402.34
2023-01-09T19:31:49.942Z,94407.38
2023-01-09T19:34:20.527Z,94399.75
2023-01-09T19:36:52.996Z,94392.06
2023-01-09T19:39:22.857Z,94389.44
2023-01-09T19:41:53.039Z,94386.63
2023-01-09T19:44:24.784Z,94379.78
2023-01-09T19:46:55.399Z,94369.53
2023-01-09T19:49:27.128Z,94363.72
2023-01-09T19:52:01.173Z,94359.88
2023-01-09T19:54:31.810Z,94353.41
2023-01-09T19:57:02.006Z,94344.16
2023-01-09T19:59:32.036Z,94333.47
2023-01-09T20:02:15.184Z,94343.13
2023-01-09T20:04:44.589Z,94337.09
2023-01-09T20:07:17.605Z,94338.50
2023-01-09T20:09:46.600Z,94343.31
2023-01-09T20:12:16.014Z,94335.53
2023-01-09T20:14:46.227Z,94330.06
2023-01-09T20:17:24.208Z,94330.47
2023-01-09T20:19:55.139Z,94318.59
2023-01-09T20:22:27.020Z,94314.56
2023-01-09T20:24:56.632Z,94301.28
2023-01-09T20:27:26.172Z,94298.50
2023-01-09T20:29:55.401Z,94291.66
2023-01-09T20:32:30.238Z,94281.78
2023-01-09T20:35:01.081Z,94282.41
2023-01-09T20:37:32.360Z,94292.47
2023-01-09T20:40:01.742Z,94292.41
2023-01-09T20:42:32.915Z,94292.06
2023-01-09T20:45:02.905Z,94281.38
2023-01-09T20:47:32.763Z,94268.94
2023-01-09T20:50:02.200Z,94262.91
2023-01-09T20:52:34.416Z,94264.91
2023-01-09T20:55:26.680Z,94262.03
2023-01-09T20:57:55.980Z,94264.88
2023-01-09T21:00:27.858Z,94273.34
2023-01-09T21:02:57.283Z,94255.06
2023-01-09T21:05:26.686Z,94239.72
2023-01-09T21:07:58.007Z,94232.53
2023-01-09T21:10:29.027Z,94234.94
2023-01-09T21:12:58.370Z,94251.25
2023-01-09T21:15:28.086Z,94264.66
2023-01-09T21:17:57.712Z,94267.09
2023-01-09T21:20:27.445Z,94262.63
2023-01-09T21:23:01.882Z,94239.13
2023-01-09T21:25:31.139Z,94247.56
2023-01-09T21:28:00.596Z,94234.50
2023-01-09T21:30:30.465Z,94220.81
2023-01-09T21:32:59.825Z,94210.34
2023-01-09T21:35:29.510Z,94194.69
2023-01-09T21:38:10.619Z,94201.09
2023-01-09T21:40:39.865Z,94195.03
2023-01-09T21:43:32.587Z,94193.50
2023-01-09T21:46:15.785Z,94204.41
2023-01-09T21:48:45.257Z,94198.72
2023-01-09T21:51:14.430Z,94200.72
2023-01-09T21:53:45.276Z,94212.41
2023-01-09T21:56:14.775Z,94217.41
2023-01-09T21:58:45.651Z,94236.91
2023-01-09T22:01:14.759Z,94229.06
2023-01-09T22:03:44.250Z,94224.84
2023-01-09T22:06:13.543Z,94213.50
2023-01-09T22:08:42.666Z,94215.72
2023-01-09T22:11:15.986Z,94215.13
2023-01-09T22:13:48.706Z,94208.47
2023-01-09T22:16:30.936Z,94206.88
2023-01-09T22:19:02.433Z,94206.88
2023-01-09T22:21:31.552Z,94204.66
2023-01-09T22:24:01.974Z,94211.66
2023-01-09T22:26:33.578Z,94208.41
2023-01-09T22:29:03.014Z,94209.41
2023-01-09T22:31:33.616Z,94196.53
2023-01-09T22:34:03.929Z,94200.59
2023-01-09T22:36:34.252Z,94190.94
2023-01-09T22:39:03.451Z,94192.16
2023-01-09T22:41:34.443Z,94176.66
2023-01-09T22:44:03.578Z,94178.94
2023-01-09T22:46:35.729Z,94164.41
2023-01-09T22:49:05.479Z,94156.78
2023-01-09T22:51:34.745Z,94144.06
2023-01-09T22:54:03.935Z,94153.94
2023-01-09T22:56:34.499Z,94153.19
2023-01-09T22:59:03.596Z,94156.59
2023-01-09T23:01:32.641Z,94149.00
2023-01-09T23:04:02.992Z,94142.69
2023-01-09T23:06:32.220Z,94134.44
2023-01-09T23:09:01.413Z,94133.94
2023-01-09T23:11:49.458Z,94138.22
2023-01-09T23:14:39.934Z,94133.31
2023-01-09T23:17:27.427Z,94131.09
2023-01-09T23:20:15.702Z,94106.34
2023-01-09T23:23:03.427Z,94098.41
2023-01-09T23:25:51.625Z,94105.94
2023-01-09T23:28:39.474Z,94095.28
2023-01-09T23:31:28.950Z,94092.63
2023-01-09T23:34:19.931Z,94091.66
2023-01-09T23:37:09.818Z,94095.34
2023-01-09T23:39:57.161Z,94089.19
2023-01-09T23:43:01.837Z,94077.38
2023-01-09T23:45:52.390Z,94100.03
2023-01-09T23:48:41.942Z,94100.03
2023-01-09T23:51:29.623Z,94092.38
2023-01-09T23:54:18.392Z,94082.94
2023-01-09T23:57:06.505Z,94081.19
2023-01-09T23:59:36.064Z,94077.19
